Sea Venture — WDF5080 — position and weather

sailwx.info

Track history (hours):
 
Tides and Currents Weather Stations Pressure Air Temp Water Temp Dewpoint Dewpoint Depression Visibility Wind Speed Wind Dir Waves Ship Positions

Sea Venture

Owner: Great Western Marine Yachts LLC, Seattle, WA. More information available from US FCC via Universal Licensing System and Coast Guard Vessel Documentation Center.

Last reported at 2016-Aug-24 21:31 UTC. Time now 2016-Aug-29 03:42 UTC.
Position N 26°08' W 080°07'.

Length 33 m.

MMSI: 338103225.

Date/timePositionNaut miles runAvg speedWind from/ knotsBaromVisibWave heightAir tempDewpointWater temp
2016-Aug-24 21:31N 26°08' W 080°07'0 0.0
2016-Aug-24 20:33N 26°08' W 080°07'0 0.0
2016-Aug-24 19:33N 26°08' W 080°07'1 1.2
2016-Aug-24 18:33N 26°07' W 080°07'5 4.6
2016-Aug-24 17:33N 26°05' W 080°02'6 6.3
2016-Aug-24 16:33N 26°12' W 080°03'2 1.5
2016-Aug-24 15:34N 26°11' W 080°02'2 1.6
2016-Aug-24 14:33N 26°13' W 080°01'4 4.0
2016-Aug-24 13:33N 26°14' W 080°06'6 5.6
2016-Aug-24 12:33N 26°08' W 080°06'1 0.7
2016-Aug-24 11:33N 26°08' W 080°07'0 0.0
2016-Aug-24 10:33N 26°08' W 080°07'0 0.0
2016-Aug-24 09:33N 26°08' W 080°07'0 0.0
2016-Aug-24 08:33N 26°08' W 080°07'0 0.0
2016-Aug-24 07:33N 26°08' W 080°07'0 0.0
2016-Aug-24 06:33N 26°08' W 080°07'0 0.0
2016-Aug-24 04:33N 26°08' W 080°07'0 0.0
2016-Aug-24 03:33N 26°08' W 080°07'0 0.0
2016-Aug-24 02:33N 26°08' W 080°07'0 0.0
2016-Aug-24 01:33N 26°08' W 080°07'0 0.0
2016-Aug-24 00:33N 26°08' W 080°07'0 0.0
2016-Aug-23 23:33N 26°08' W 080°07'0 0.0
2016-Aug-23 22:33N 26°08' W 080°07'0 0.0
2016-Aug-23 21:33N 26°08' W 080°07'0 0.0
2016-Aug-23 20:33N 26°08' W 080°07'0 0.0
2016-Aug-23 19:33N 26°08' W 080°07'0 0.0
2016-Aug-23 18:33N 26°08' W 080°07'0 0.0
2016-Aug-23 17:33N 26°08' W 080°07'0 0.0
2016-Aug-23 16:33N 26°08' W 080°07'  
Track history (hours):
 
Tides and Currents Weather Stations Pressure Air Temp Water Temp Dewpoint Dewpoint Depression Visibility Wind Speed Wind Dir Waves Ship Positions

Sea Venture

Owner: Great Western Marine Yachts LLC, Seattle, WA. More information available from US FCC via Universal Licensing System and Coast Guard Vessel Documentation Center.

Last reported at 2016-Aug-24 21:31 UTC. Time now 2016-Aug-29 03:42 UTC.
Position N 26°08' W 080°07'.

Length 33 m.

MMSI: 338103225.

Date/timePositionNaut miles runAvg speedWind from/ knotsBaromVisibWave heightAir tempDewpointWater temp
2016-Aug-24 21:31N 26°08' W 080°07'0 0.0
2016-Aug-24 20:33N 26°08' W 080°07'0 0.0
2016-Aug-24 19:33N 26°08' W 080°07'1 1.2
2016-Aug-24 18:33N 26°07' W 080°07'5 4.6
2016-Aug-24 17:33N 26°05' W 080°02'6 6.3
2016-Aug-24 16:33N 26°12' W 080°03'2 1.5
2016-Aug-24 15:34N 26°11' W 080°02'2 1.6
2016-Aug-24 14:33N 26°13' W 080°01'4 4.0
2016-Aug-24 13:33N 26°14' W 080°06'6 5.6
2016-Aug-24 12:33N 26°08' W 080°06'1 0.7
2016-Aug-24 11:33N 26°08' W 080°07'0 0.0
2016-Aug-24 10:33N 26°08' W 080°07'0 0.0
2016-Aug-24 09:33N 26°08' W 080°07'0 0.0
2016-Aug-24 08:33N 26°08' W 080°07'0 0.0
2016-Aug-24 07:33N 26°08' W 080°07'0 0.0
2016-Aug-24 06:33N 26°08' W 080°07'0 0.0
2016-Aug-24 04:33N 26°08' W 080°07'0 0.0
2016-Aug-24 03:33N 26°08' W 080°07'0 0.0
2016-Aug-24 02:33N 26°08' W 080°07'0 0.0
2016-Aug-24 01:33N 26°08' W 080°07'0 0.0
2016-Aug-24 00:33N 26°08' W 080°07'0 0.0
2016-Aug-23 23:33N 26°08' W 080°07'0 0.0
2016-Aug-23 22:33N 26°08' W 080°07'0 0.0
2016-Aug-23 21:33N 26°08' W 080°07'0 0.0
2016-Aug-23 20:33N 26°08' W 080°07'0 0.0
2016-Aug-23 19:33N 26°08' W 080°07'0 0.0
2016-Aug-23 18:33N 26°08' W 080°07'0 0.0
2016-Aug-23 17:33N 26°08' W 080°07'0 0.0
2016-Aug-23 16:33N 26°08' W 080°07'  

Dump ship's entire track history